sensor_id;sensor_type;location;lat;lon;timestamp;P1;durP1;ratioP1;P2;durP2;ratioP2
21432;SDS011;18592;49.708;10.900;2023-03-30T00:01:05;3.30;;;2.10;;
21432;SDS011;18592;49.708;10.900;2023-03-30T00:03:12;3.35;;;1.77;;
21432;SDS011;18592;49.708;10.900;2023-03-30T00:05:14;2.70;;;1.80;;
21432;SDS011;18592;49.708;10.900;2023-03-30T00:07:19;3.72;;;2.13;;
21432;SDS011;18592;49.708;10.900;2023-03-30T00:09:21;4.95;;;2.20;;
21432;SDS011;18592;49.708;10.900;2023-03-30T00:11:23;2.63;;;1.88;;
21432;SDS011;18592;49.708;10.900;2023-03-30T00:13:27;5.45;;;2.30;;
21432;SDS011;18592;49.708;10.900;2023-03-30T00:15:30;4.32;;;1.90;;
21432;SDS011;18592;49.708;10.900;2023-03-30T00:17:31;2.88;;;2.20;;
21432;SDS011;18592;49.708;10.900;2023-03-30T00:19:34;2.92;;;1.63;;
21432;SDS011;18592;49.708;10.900;2023-03-30T00:21:38;2.40;;;1.70;;
21432;SDS011;18592;49.708;10.900;2023-03-30T00:23:40;2.22;;;1.52;;
21432;SDS011;18592;49.708;10.900;2023-03-30T00:25:42;3.70;;;1.92;;
21432;SDS011;18592;49.708;10.900;2023-03-30T00:27:46;2.13;;;1.90;;
21432;SDS011;18592;49.708;10.900;2023-03-30T00:29:47;2.30;;;1.73;;
21432;SDS011;18592;49.708;10.900;2023-03-30T00:31:49;3.88;;;1.88;;
21432;SDS011;18592;49.708;10.900;2023-03-30T00:33:51;3.40;;;1.92;;
21432;SDS011;18592;49.708;10.900;2023-03-30T00:35:53;2.50;;;1.90;;
21432;SDS011;18592;49.708;10.900;2023-03-30T00:37:56;3.53;;;1.80;;
21432;SDS011;18592;49.708;10.900;2023-03-30T00:40:05;2.88;;;1.85;;
21432;SDS011;18592;49.708;10.900;2023-03-30T00:42:15;2.58;;;1.90;;
21432;SDS011;18592;49.708;10.900;2023-03-30T00:46:57;3.10;;;1.65;;
21432;SDS011;18592;49.708;10.900;2023-03-30T00:49:03;2.65;;;1.60;;
21432;SDS011;18592;49.708;10.900;2023-03-30T00:51:10;3.05;;;1.75;;
21432;SDS011;18592;49.708;10.900;2023-03-30T00:53:13;2.80;;;1.90;;
21432;SDS011;18592;49.708;10.900;2023-03-30T00:55:21;2.05;;;1.58;;
21432;SDS011;18592;49.708;10.900;2023-03-30T00:57:26;3.40;;;1.83;;
21432;SDS011;18592;49.708;10.900;2023-03-30T00:59:32;3.05;;;1.83;;
21432;SDS011;18592;49.708;10.900;2023-03-30T01:01:34;2.80;;;1.55;;
21432;SDS011;18592;49.708;10.900;2023-03-30T01:03:40;3.35;;;1.98;;
21432;SDS011;18592;49.708;10.900;2023-03-30T01:05:46;3.45;;;1.77;;
21432;SDS011;18592;49.708;10.900;2023-03-30T01:07:49;2.78;;;1.77;;
21432;SDS011;18592;49.708;10.900;2023-03-30T01:09:51;2.60;;;1.75;;
21432;SDS011;18592;49.708;10.900;2023-03-30T01:11:53;2.45;;;1.80;;
21432;SDS011;18592;49.708;10.900;2023-03-30T01:14:02;3.28;;;1.60;;
21432;SDS011;18592;49.708;10.900;2023-03-30T01:21:07;3.00;;;2.10;;
21432;SDS011;18592;49.708;10.900;2023-03-30T01:25:48;2.13;;;1.35;;
21432;SDS011;18592;49.708;10.900;2023-03-30T01:28:06;2.00;;;1.48;;
21432;SDS011;18592;49.708;10.900;2023-03-30T01:30:25;2.08;;;1.63;;
21432;SDS011;18592;49.708;10.900;2023-03-30T01:38:20;3.53;;;1.60;;
21432;SDS011;18592;49.708;10.900;2023-03-30T01:40:48;3.50;;;1.73;;
21432;SDS011;18592;49.708;10.900;2023-03-30T01:45:42;3.17;;;1.63;;
21432;SDS011;18592;49.708;10.900;2023-03-30T01:50:16;3.50;;;1.75;;
21432;SDS011;18592;49.708;10.900;2023-03-30T01:52:26;3.22;;;1.88;;
21432;SDS011;18592;49.708;10.900;2023-03-30T01:54:38;2.95;;;1.65;;
21432;SDS011;18592;49.708;10.900;2023-03-30T01:59:08;3.40;;;1.70;;
21432;SDS011;18592;49.708;10.900;2023-03-30T02:01:18;3.03;;;1.80;;
21432;SDS011;18592;49.708;10.900;2023-03-30T02:03:23;4.25;;;1.80;;
21432;SDS011;18592;49.708;10.900;2023-03-30T02:05:30;3.80;;;1.67;;
21432;SDS011;18592;49.708;10.900;2023-03-30T02:07:36;3.47;;;1.88;;
21432;SDS011;18592;49.708;10.900;2023-03-30T02:09:42;3.03;;;1.67;;
21432;SDS011;18592;49.708;10.900;2023-03-30T02:11:49;2.92;;;1.70;;
21432;SDS011;18592;49.708;10.900;2023-03-30T02:13:54;3.15;;;1.67;;
21432;SDS011;18592;49.708;10.900;2023-03-30T02:16:01;3.50;;;1.63;;
21432;SDS011;18592;49.708;10.900;2023-03-30T02:18:08;2.47;;;1.60;;
21432;SDS011;18592;49.708;10.900;2023-03-30T02:20:11;2.63;;;1.50;;
21432;SDS011;18592;49.708;10.900;2023-03-30T02:22:16;3.30;;;1.90;;
21432;SDS011;18592;49.708;10.900;2023-03-30T02:24:22;3.63;;;1.90;;
21432;SDS011;18592;49.708;10.900;2023-03-30T02:26:31;3.90;;;1.92;;
21432;SDS011;18592;49.708;10.900;2023-03-30T02:28:33;3.67;;;2.00;;
21432;SDS011;18592;49.708;10.900;2023-03-30T02:30:38;2.35;;;1.48;;
21432;SDS011;18592;49.708;10.900;2023-03-30T02:32:46;2.67;;;1.60;;
21432;SDS011;18592;49.708;10.900;2023-03-30T02:51:50;3.17;;;1.70;;
21432;SDS011;18592;49.708;10.900;2023-03-30T02:54:33;4.00;;;1.80;;
21432;SDS011;18592;49.708;10.900;2023-03-30T02:56:59;4.25;;;1.50;;
21432;SDS011;18592;49.708;10.900;2023-03-30T02:59:20;2.42;;;1.52;;
21432;SDS011;18592;49.708;10.900;2023-03-30T03:03:51;4.35;;;1.88;;
21432;SDS011;18592;49.708;10.900;2023-03-30T03:06:00;2.08;;;1.50;;
21432;SDS011;18592;49.708;10.900;2023-03-30T03:08:14;4.63;;;1.90;;
21432;SDS011;18592;49.708;10.900;2023-03-30T03:10:21;4.85;;;2.03;;
21432;SDS011;18592;49.708;10.900;2023-03-30T03:12:26;3.95;;;2.25;;
21432;SDS011;18592;49.708;10.900;2023-03-30T03:14:30;3.92;;;1.70;;
21432;SDS011;18592;49.708;10.900;2023-03-30T03:16:32;2.85;;;1.63;;
21432;SDS011;18592;49.708;10.900;2023-03-30T03:18:46;2.85;;;1.77;;
21432;SDS011;18592;49.708;10.900;2023-03-30T03:20:49;2.53;;;1.85;;
21432;SDS011;18592;49.708;10.900;2023-03-30T03:22:53;2.67;;;1.77;;
21432;SDS011;18592;49.708;10.900;2023-03-30T03:24:57;2.97;;;1.60;;
21432;SDS011;18592;49.708;10.900;2023-03-30T03:27:16;3.38;;;1.80;;
21432;SDS011;18592;49.708;10.900;2023-03-30T03:29:37;4.97;;;2.22;;
21432;SDS011;18592;49.708;10.900;2023-03-30T03:31:39;4.05;;;1.95;;
21432;SDS011;18592;49.708;10.900;2023-03-30T03:33:41;4.90;;;2.08;;
21432;SDS011;18592;49.708;10.900;2023-03-30T03:35:49;4.35;;;1.60;;
21432;SDS011;18592;49.708;10.900;2023-03-30T03:37:56;2.22;;;1.70;;
21432;SDS011;18592;49.708;10.900;2023-03-30T03:39:58;4.18;;;2.00;;
21432;SDS011;18592;49.708;10.900;2023-03-30T03:41:59;2.70;;;1.60;;
21432;SDS011;18592;49.708;10.900;2023-03-30T03:44:01;3.45;;;1.90;;
21432;SDS011;18592;49.708;10.900;2023-03-30T03:46:02;3.72;;;1.90;;
21432;SDS011;18592;49.708;10.900;2023-03-30T03:48:05;3.67;;;1.80;;
21432;SDS011;18592;49.708;10.900;2023-03-30T03:50:15;4.05;;;2.10;;
21432;SDS011;18592;49.708;10.900;2023-03-30T03:52:17;3.83;;;2.30;;
21432;SDS011;18592;49.708;10.900;2023-03-30T03:54:19;3.15;;;2.13;;
21432;SDS011;18592;49.708;10.900;2023-03-30T03:56:24;3.85;;;2.55;;
21432;SDS011;18592;49.708;10.900;2023-03-30T03:58:29;4.90;;;2.58;;
21432;SDS011;18592;49.708;10.900;2023-03-30T04:00:32;5.82;;;3.20;;
21432;SDS011;18592;49.708;10.900;2023-03-30T04:02:34;4.82;;;3.58;;
21432;SDS011;18592;49.708;10.900;2023-03-30T04:04:36;7.03;;;4.10;;
21432;SDS011;18592;49.708;10.900;2023-03-30T04:06:38;7.90;;;4.88;;
21432;SDS011;18592;49.708;10.900;2023-03-30T04:08:42;9.00;;;5.10;;
21432;SDS011;18592;49.708;10.900;2023-03-30T04:11:05;9.15;;;5.38;;
21432;SDS011;18592;49.708;10.900;2023-03-30T04:13:27;8.23;;;6.57;;
21432;SDS011;18592;49.708;10.900;2023-03-30T04:15:47;8.93;;;6.13;;
21432;SDS011;18592;49.708;10.900;2023-03-30T04:18:19;10.18;;;7.00;;
21432;SDS011;18592;49.708;10.900;2023-03-30T04:20:40;9.07;;;6.50;;
21432;SDS011;18592;49.708;10.900;2023-03-30T04:22:48;8.60;;;6.43;;
21432;SDS011;18592;49.708;10.900;2023-03-30T04:24:53;9.93;;;5.82;;
21432;SDS011;18592;49.708;10.900;2023-03-30T04:27:25;8.50;;;5.68;;
21432;SDS011;18592;49.708;10.900;2023-03-30T04:29:51;9.30;;;5.53;;
21432;SDS011;18592;49.708;10.900;2023-03-30T04:32:11;7.82;;;4.90;;
21432;SDS011;18592;49.708;10.900;2023-03-30T04:34:37;5.35;;;4.05;;
21432;SDS011;18592;49.708;10.900;2023-03-30T04:37:00;4.85;;;3.50;;
21432;SDS011;18592;49.708;10.900;2023-03-30T04:39:16;5.00;;;2.78;;
21432;SDS011;18592;49.708;10.900;2023-03-30T04:41:27;4.75;;;2.75;;
21432;SDS011;18592;49.708;10.900;2023-03-30T04:43:49;4.63;;;2.17;;
21432;SDS011;18592;49.708;10.900;2023-03-30T04:46:05;4.60;;;2.30;;
21432;SDS011;18592;49.708;10.900;2023-03-30T04:48:33;4.25;;;2.13;;
21432;SDS011;18592;49.708;10.900;2023-03-30T04:50:59;4.03;;;2.10;;
21432;SDS011;18592;49.708;10.900;2023-03-30T04:53:26;4.50;;;2.13;;
21432;SDS011;18592;49.708;10.900;2023-03-30T04:55:47;4.63;;;2.72;;
21432;SDS011;18592;49.708;10.900;2023-03-30T04:58:09;5.70;;;2.65;;
21432;SDS011;18592;49.708;10.900;2023-03-30T05:00:32;4.45;;;3.00;;
21432;SDS011;18592;49.708;10.900;2023-03-30T05:03:01;4.63;;;2.72;;
21432;SDS011;18592;49.708;10.900;2023-03-30T05:05:31;5.40;;;2.95;;
21432;SDS011;18592;49.708;10.900;2023-03-30T05:07:50;5.55;;;3.40;;
21432;SDS011;18592;49.708;10.900;2023-03-30T05:10:06;7.65;;;3.83;;
21432;SDS011;18592;49.708;10.900;2023-03-30T05:12:21;4.50;;;3.35;;
21432;SDS011;18592;49.708;10.900;2023-03-30T05:14:52;4.97;;;3.47;;
21432;SDS011;18592;49.708;10.900;2023-03-30T05:17:04;6.93;;;3.22;;
21432;SDS011;18592;49.708;10.900;2023-03-30T05:19:26;5.88;;;3.25;;
21432;SDS011;18592;49.708;10.900;2023-03-30T05:21:42;4.05;;;2.63;;
21432;SDS011;18592;49.708;10.900;2023-03-30T05:24:00;3.95;;;2.70;;
21432;SDS011;18592;49.708;10.900;2023-03-30T05:26:05;2.80;;;2.35;;
21432;SDS011;18592;49.708;10.900;2023-03-30T05:28:26;6.05;;;2.80;;
21432;SDS011;18592;49.708;10.900;2023-03-30T05:30:54;5.50;;;3.15;;
21432;SDS011;18592;49.708;10.900;2023-03-30T05:33:19;6.35;;;2.85;;
21432;SDS011;18592;49.708;10.900;2023-03-30T05:35:40;3.95;;;2.72;;
21432;SDS011;18592;49.708;10.900;2023-03-30T05:38:08;4.20;;;2.40;;
21432;SDS011;18592;49.708;10.900;2023-03-30T05:40:38;6.38;;;3.00;;
21432;SDS011;18592;49.708;10.900;2023-03-30T05:43:01;4.68;;;2.20;;
21432;SDS011;18592;49.708;10.900;2023-03-30T05:45:25;4.93;;;2.20;;
21432;SDS011;18592;49.708;10.900;2023-03-30T05:47:46;5.03;;;2.45;;
21432;SDS011;18592;49.708;10.900;2023-03-30T05:50:07;6.03;;;2.50;;
21432;SDS011;18592;49.708;10.900;2023-03-30T05:52:21;7.35;;;2.40;;
21432;SDS011;18592;49.708;10.900;2023-03-30T05:54:36;5.53;;;2.40;;
21432;SDS011;18592;49.708;10.900;2023-03-30T05:56:44;8.18;;;2.90;;
21432;SDS011;18592;49.708;10.900;2023-03-30T05:58:54;6.18;;;2.33;;
21432;SDS011;18592;49.708;10.900;2023-03-30T06:01:18;3.67;;;2.17;;
21432;SDS011;18592;49.708;10.900;2023-03-30T06:03:22;7.13;;;2.75;;
21432;SDS011;18592;49.708;10.900;2023-03-30T06:05:24;8.95;;;3.20;;
21432;SDS011;18592;49.708;10.900;2023-03-30T06:07:27;4.60;;;2.90;;
21432;SDS011;18592;49.708;10.900;2023-03-30T06:09:30;6.75;;;2.75;;
21432;SDS011;18592;49.708;10.900;2023-03-30T06:11:36;5.53;;;3.00;;
21432;SDS011;18592;49.708;10.900;2023-03-30T06:13:51;6.47;;;2.50;;
21432;SDS011;18592;49.708;10.900;2023-03-30T06:15:56;5.35;;;2.55;;
21432;SDS011;18592;49.708;10.900;2023-03-30T06:18:00;6.53;;;2.80;;
21432;SDS011;18592;49.708;10.900;2023-03-30T06:20:07;4.90;;;2.80;;
21432;SDS011;18592;49.708;10.900;2023-03-30T06:22:16;5.50;;;2.90;;
21432;SDS011;18592;49.708;10.900;2023-03-30T06:24:23;6.05;;;3.22;;
21432;SDS011;18592;49.708;10.900;2023-03-30T06:26:26;4.78;;;2.78;;
21432;SDS011;18592;49.708;10.900;2023-03-30T06:28:30;8.50;;;3.40;;
21432;SDS011;18592;49.708;10.900;2023-03-30T06:30:33;7.03;;;3.10;;
21432;SDS011;18592;49.708;10.900;2023-03-30T06:32:39;5.30;;;3.20;;
21432;SDS011;18592;49.708;10.900;2023-03-30T06:34:57;6.82;;;2.75;;
21432;SDS011;18592;49.708;10.900;2023-03-30T06:37:01;5.50;;;2.83;;
21432;SDS011;18592;49.708;10.900;2023-03-30T06:39:03;5.82;;;2.50;;
21432;SDS011;18592;49.708;10.900;2023-03-30T06:41:08;5.22;;;2.70;;
21432;SDS011;18592;49.708;10.900;2023-03-30T06:43:20;7.20;;;2.40;;
21432;SDS011;18592;49.708;10.900;2023-03-30T06:45:50;6.80;;;2.45;;
21432;SDS011;18592;49.708;10.900;2023-03-30T06:47:52;8.20;;;2.70;;
21432;SDS011;18592;49.708;10.900;2023-03-30T06:49:56;6.07;;;2.40;;
21432;SDS011;18592;49.708;10.900;2023-03-30T06:52:20;6.00;;;2.85;;
21432;SDS011;18592;49.708;10.900;2023-03-30T06:54:22;5.35;;;3.08;;
21432;SDS011;18592;49.708;10.900;2023-03-30T06:56:29;5.22;;;2.67;;
21432;SDS011;18592;49.708;10.900;2023-03-30T06:58:41;6.35;;;2.63;;
21432;SDS011;18592;49.708;10.900;2023-03-30T07:00:43;5.20;;;2.70;;
21432;SDS011;18592;49.708;10.900;2023-03-30T07:03:04;6.43;;;2.78;;
21432;SDS011;18592;49.708;10.900;2023-03-30T07:05:24;7.85;;;3.17;;
21432;SDS011;18592;49.708;10.900;2023-03-30T07:07:46;12.30;;;3.03;;
21432;SDS011;18592;49.708;10.900;2023-03-30T07:09:48;6.43;;;2.47;;
21432;SDS011;18592;49.708;10.900;2023-03-30T07:11:50;6.38;;;2.90;;
21432;SDS011;18592;49.708;10.900;2023-03-30T07:13:56;8.43;;;2.72;;
21432;SDS011;18592;49.708;10.900;2023-03-30T07:15:59;5.95;;;2.95;;
21432;SDS011;18592;49.708;10.900;2023-03-30T07:18:00;6.45;;;3.10;;
21432;SDS011;18592;49.708;10.900;2023-03-30T07:20:02;6.13;;;2.45;;
21432;SDS011;18592;49.708;10.900;2023-03-30T07:22:07;7.75;;;2.63;;
21432;SDS011;18592;49.708;10.900;2023-03-30T07:24:10;8.57;;;2.75;;
21432;SDS011;18592;49.708;10.900;2023-03-30T07:26:13;7.28;;;2.75;;
21432;SDS011;18592;49.708;10.900;2023-03-30T07:28:22;10.18;;;2.67;;
21432;SDS011;18592;49.708;10.900;2023-03-30T07:30:26;8.20;;;2.80;;
21432;SDS011;18592;49.708;10.900;2023-03-30T07:32:34;6.15;;;2.60;;
21432;SDS011;18592;49.708;10.900;2023-03-30T07:34:41;7.78;;;2.97;;
21432;SDS011;18592;49.708;10.900;2023-03-30T07:36:43;9.40;;;3.08;;
21432;SDS011;18592;49.708;10.900;2023-03-30T07:38:45;6.97;;;3.08;;
21432;SDS011;18592;49.708;10.900;2023-03-30T07:40:47;8.02;;;2.35;;
21432;SDS011;18592;49.708;10.900;2023-03-30T07:42:49;7.00;;;2.78;;
21432;SDS011;18592;49.708;10.900;2023-03-30T07:44:52;6.65;;;2.60;;
21432;SDS011;18592;49.708;10.900;2023-03-30T07:46:56;9.52;;;2.67;;
21432;SDS011;18592;49.708;10.900;2023-03-30T07:48:59;10.02;;;3.03;;
21432;SDS011;18592;49.708;10.900;2023-03-30T07:51:02;9.93;;;3.00;;
21432;SDS011;18592;49.708;10.900;2023-03-30T07:53:09;7.63;;;2.92;;
21432;SDS011;18592;49.708;10.900;2023-03-30T07:55:12;10.05;;;3.30;;
21432;SDS011;18592;49.708;10.900;2023-03-30T07:57:24;5.80;;;2.40;;
21432;SDS011;18592;49.708;10.900;2023-03-30T07:59:25;8.73;;;3.38;;
21432;SDS011;18592;49.708;10.900;2023-03-30T08:01:34;7.60;;;3.20;;
21432;SDS011;18592;49.708;10.900;2023-03-30T08:03:36;6.85;;;3.15;;
21432;SDS011;18592;49.708;10.900;2023-03-30T08:05:38;6.20;;;2.80;;
21432;SDS011;18592;49.708;10.900;2023-03-30T08:07:47;7.03;;;2.72;;
21432;SDS011;18592;49.708;10.900;2023-03-30T08:09:55;8.90;;;2.90;;
21432;SDS011;18592;49.708;10.900;2023-03-30T08:12:00;9.75;;;3.60;;
21432;SDS011;18592;49.708;10.900;2023-03-30T08:14:02;6.63;;;3.10;;
21432;SDS011;18592;49.708;10.900;2023-03-30T08:16:04;7.68;;;3.17;;
21432;SDS011;18592;49.708;10.900;2023-03-30T08:18:06;7.10;;;2.83;;
21432;SDS011;18592;49.708;10.900;2023-03-30T08:20:08;7.70;;;3.33;;
21432;SDS011;18592;49.708;10.900;2023-03-30T08:22:13;6.97;;;2.72;;
21432;SDS011;18592;49.708;10.900;2023-03-30T08:24:15;9.23;;;3.22;;
21432;SDS011;18592;49.708;10.900;2023-03-30T08:26:19;8.48;;;3.20;;
21432;SDS011;18592;49.708;10.900;2023-03-30T08:28:23;7.50;;;3.42;;
21432;SDS011;18592;49.708;10.900;2023-03-30T08:30:26;9.40;;;3.53;;
21432;SDS011;18592;49.708;10.900;2023-03-30T08:32:27;8.25;;;3.08;;
21432;SDS011;18592;49.708;10.900;2023-03-30T08:34:29;7.13;;;2.97;;
21432;SDS011;18592;49.708;10.900;2023-03-30T08:36:31;6.90;;;3.40;;
21432;SDS011;18592;49.708;10.900;2023-03-30T08:38:33;8.30;;;3.22;;
21432;SDS011;18592;49.708;10.900;2023-03-30T08:40:38;6.18;;;3.20;;
21432;SDS011;18592;49.708;10.900;2023-03-30T08:42:47;11.40;;;4.15;;
21432;SDS011;18592;49.708;10.900;2023-03-30T08:44:54;10.55;;;3.90;;
21432;SDS011;18592;49.708;10.900;2023-03-30T08:46:59;8.50;;;3.47;;
21432;SDS011;18592;49.708;10.900;2023-03-30T08:49:06;10.98;;;3.75;;
21432;SDS011;18592;49.708;10.900;2023-03-30T08:51:24;8.77;;;3.50;;
21432;SDS011;18592;49.708;10.900;2023-03-30T08:53:28;8.43;;;3.45;;
21432;SDS011;18592;49.708;10.900;2023-03-30T08:55:46;8.50;;;3.40;;
21432;SDS011;18592;49.708;10.900;2023-03-30T08:57:58;7.53;;;3.20;;
21432;SDS011;18592;49.708;10.900;2023-03-30T09:00:09;8.77;;;3.28;;
21432;SDS011;18592;49.708;10.900;2023-03-30T09:02:27;5.47;;;2.90;;
21432;SDS011;18592;49.708;10.900;2023-03-30T09:04:52;5.97;;;2.88;;
21432;SDS011;18592;49.708;10.900;2023-03-30T09:07:21;8.20;;;2.80;;
21432;SDS011;18592;49.708;10.900;2023-03-30T09:09:31;8.57;;;3.20;;
21432;SDS011;18592;49.708;10.900;2023-03-30T09:11:41;6.43;;;2.88;;
21432;SDS011;18592;49.708;10.900;2023-03-30T09:13:43;6.85;;;2.88;;
21432;SDS011;18592;49.708;10.900;2023-03-30T09:18:25;9.25;;;2.72;;
21432;SDS011;18592;49.708;10.900;2023-03-30T09:20:32;8.48;;;2.90;;
21432;SDS011;18592;49.708;10.900;2023-03-30T09:22:38;5.97;;;2.65;;
21432;SDS011;18592;49.708;10.900;2023-03-30T09:24:42;9.70;;;2.63;;
21432;SDS011;18592;49.708;10.900;2023-03-30T09:27:01;7.75;;;2.30;;
21432;SDS011;18592;49.708;10.900;2023-03-30T09:29:10;8.13;;;2.50;;
21432;SDS011;18592;49.708;10.900;2023-03-30T09:31:24;7.18;;;2.33;;
21432;SDS011;18592;49.708;10.900;2023-03-30T09:33:41;3.95;;;1.65;;
21432;SDS011;18592;49.708;10.900;2023-03-30T09:35:58;4.53;;;1.90;;
21432;SDS011;18592;49.708;10.900;2023-03-30T09:38:11;6.47;;;2.17;;
21432;SDS011;18592;49.708;10.900;2023-03-30T09:42:57;4.68;;;1.80;;
21432;SDS011;18592;49.708;10.900;2023-03-30T09:45:35;5.18;;;1.92;;
21432;SDS011;18592;49.708;10.900;2023-03-30T09:47:38;6.72;;;2.05;;
21432;SDS011;18592;49.708;10.900;2023-03-30T09:49:42;6.05;;;2.33;;
21432;SDS011;18592;49.708;10.900;2023-03-30T09:52:04;4.38;;;1.88;;
21432;SDS011;18592;49.708;10.900;2023-03-30T09:54:13;7.50;;;2.00;;
21432;SDS011;18592;49.708;10.900;2023-03-30T09:56:19;6.55;;;2.50;;
21432;SDS011;18592;49.708;10.900;2023-03-30T09:58:29;6.03;;;2.20;;
21432;SDS011;18592;49.708;10.900;2023-03-30T10:00:33;5.95;;;1.90;;
21432;SDS011;18592;49.708;10.900;2023-03-30T10:02:37;5.13;;;2.08;;
21432;SDS011;18592;49.708;10.900;2023-03-30T10:06:53;5.50;;;1.85;;
21432;SDS011;18592;49.708;10.900;2023-03-30T10:08:55;7.68;;;2.13;;
21432;SDS011;18592;49.708;10.900;2023-03-30T10:11:05;8.25;;;2.30;;
21432;SDS011;18592;49.708;10.900;2023-03-30T10:13:11;8.32;;;2.78;;
21432;SDS011;18592;49.708;10.900;2023-03-30T10:15:18;7.15;;;2.33;;
21432;SDS011;18592;49.708;10.900;2023-03-30T10:17:26;7.25;;;2.35;;
21432;SDS011;18592;49.708;10.900;2023-03-30T10:19:29;6.10;;;2.40;;
21432;SDS011;18592;49.708;10.900;2023-03-30T10:21:36;7.75;;;2.53;;
21432;SDS011;18592;49.708;10.900;2023-03-30T10:23:40;8.48;;;3.28;;
21432;SDS011;18592;49.708;10.900;2023-03-30T10:25:45;6.15;;;2.47;;
21432;SDS011;18592;49.708;10.900;2023-03-30T10:27:51;4.97;;;2.42;;
21432;SDS011;18592;49.708;10.900;2023-03-30T10:29:57;5.68;;;2.67;;
21432;SDS011;18592;49.708;10.900;2023-03-30T10:32:13;7.35;;;2.38;;
21432;SDS011;18592;49.708;10.900;2023-03-30T10:34:19;5.28;;;2.58;;
21432;SDS011;18592;49.708;10.900;2023-03-30T10:36:33;6.50;;;2.70;;
21432;SDS011;18592;49.708;10.900;2023-03-30T10:38:40;7.68;;;3.30;;
21432;SDS011;18592;49.708;10.900;2023-03-30T10:40:54;5.38;;;2.40;;
21432;SDS011;18592;49.708;10.900;2023-03-30T10:43:18;9.30;;;2.50;;
21432;SDS011;18592;49.708;10.900;2023-03-30T10:50:54;5.82;;;2.10;;
21432;SDS011;18592;49.708;10.900;2023-03-30T10:55:40;5.70;;;2.38;;
21432;SDS011;18592;49.708;10.900;2023-03-30T11:05:07;5.32;;;2.55;;
21432;SDS011;18592;49.708;10.900;2023-03-30T11:07:27;5.90;;;2.33;;
21432;SDS011;18592;49.708;10.900;2023-03-30T11:09:53;6.63;;;2.28;;
21432;SDS011;18592;49.708;10.900;2023-03-30T11:12:09;6.55;;;2.47;;
21432;SDS011;18592;49.708;10.900;2023-03-30T11:14:34;5.55;;;2.53;;
21432;SDS011;18592;49.708;10.900;2023-03-30T11:16:54;7.28;;;2.30;;
21432;SDS011;18592;49.708;10.900;2023-03-30T11:19:09;8.10;;;2.47;;
21432;SDS011;18592;49.708;10.900;2023-03-30T11:21:23;5.68;;;2.00;;
21432;SDS011;18592;49.708;10.900;2023-03-30T11:23:42;8.38;;;2.50;;
21432;SDS011;18592;49.708;10.900;2023-03-30T11:25:54;7.15;;;2.30;;
21432;SDS011;18592;49.708;10.900;2023-03-30T11:30:44;4.35;;;1.70;;
21432;SDS011;18592;49.708;10.900;2023-03-30T11:32:53;2.58;;;1.60;;
21432;SDS011;18592;49.708;10.900;2023-03-30T11:35:03;3.08;;;1.73;;
21432;SDS011;18592;49.708;10.900;2023-03-30T11:37:17;3.58;;;1.58;;
21432;SDS011;18592;49.708;10.900;2023-03-30T11:39:32;3.55;;;1.95;;
21432;SDS011;18592;49.708;10.900;2023-03-30T11:43:45;5.35;;;1.60;;
21432;SDS011;18592;49.708;10.900;2023-03-30T11:50:26;4.15;;;1.50;;
21432;SDS011;18592;49.708;10.900;2023-03-30T11:57:16;4.82;;;2.13;;
21432;SDS011;18592;49.708;10.900;2023-03-30T11:59:46;4.15;;;1.63;;
21432;SDS011;18592;49.708;10.900;2023-03-30T12:04:50;3.63;;;1.73;;
21432;SDS011;18592;49.708;10.900;2023-03-30T12:07:09;2.95;;;1.77;;
21432;SDS011;18592;49.708;10.900;2023-03-30T12:13:49;2.88;;;1.98;;
21432;SDS011;18592;49.708;10.900;2023-03-30T12:15:54;3.75;;;1.80;;
21432;SDS011;18592;49.708;10.900;2023-03-30T12:20:23;4.55;;;1.77;;
21432;SDS011;18592;49.708;10.900;2023-03-30T12:22:47;4.82;;;1.70;;
21432;SDS011;18592;49.708;10.900;2023-03-30T12:25:05;5.47;;;2.05;;
21432;SDS011;18592;49.708;10.900;2023-03-30T12:27:15;4.05;;;2.03;;
21432;SDS011;18592;49.708;10.900;2023-03-30T12:29:17;4.95;;;1.90;;
21432;SDS011;18592;49.708;10.900;2023-03-30T12:31:23;3.40;;;1.95;;
21432;SDS011;18592;49.708;10.900;2023-03-30T12:34:04;4.65;;;1.80;;
21432;SDS011;18592;49.708;10.900;2023-03-30T12:36:23;3.67;;;1.92;;
21432;SDS011;18592;49.708;10.900;2023-03-30T12:38:40;3.58;;;1.70;;
21432;SDS011;18592;49.708;10.900;2023-03-30T12:40:46;4.43;;;1.85;;
21432;SDS011;18592;49.708;10.900;2023-03-30T12:43:10;3.53;;;1.60;;
21432;SDS011;18592;49.708;10.900;2023-03-30T12:47:26;3.25;;;1.70;;
21432;SDS011;18592;49.708;10.900;2023-03-30T12:49:46;5.57;;;1.80;;
21432;SDS011;18592;49.708;10.900;2023-03-30T12:59:28;4.35;;;2.00;;
21432;SDS011;18592;49.708;10.900;2023-03-30T13:01:56;4.35;;;2.08;;
21432;SDS011;18592;49.708;10.900;2023-03-30T13:04:16;4.10;;;1.92;;
21432;SDS011;18592;49.708;10.900;2023-03-30T13:08:39;4.25;;;2.08;;
21432;SDS011;18592;49.708;10.900;2023-03-30T13:10:42;4.60;;;1.65;;
21432;SDS011;18592;49.708;10.900;2023-03-30T13:12:44;3.38;;;1.88;;
21432;SDS011;18592;49.708;10.900;2023-03-30T13:17:09;2.78;;;1.67;;
21432;SDS011;18592;49.708;10.900;2023-03-30T13:21:32;2.83;;;1.73;;
21432;SDS011;18592;49.708;10.900;2023-03-30T13:24:00;2.97;;;1.50;;
21432;SDS011;18592;49.708;10.900;2023-03-30T13:26:24;2.55;;;1.50;;
21432;SDS011;18592;49.708;10.900;2023-03-30T13:28:58;5.65;;;1.50;;
21432;SDS011;18592;49.708;10.900;2023-03-30T13:33:32;3.42;;;1.70;;
21432;SDS011;18592;49.708;10.900;2023-03-30T13:40:43;3.80;;;1.70;;
21432;SDS011;18592;49.708;10.900;2023-03-30T13:43:20;5.85;;;1.70;;
21432;SDS011;18592;49.708;10.900;2023-03-30T13:50:52;3.33;;;1.70;;
21432;SDS011;18592;49.708;10.900;2023-03-30T13:52:58;3.65;;;1.67;;
21432;SDS011;18592;49.708;10.900;2023-03-30T13:55:03;3.90;;;1.50;;
21432;SDS011;18592;49.708;10.900;2023-03-30T13:57:11;2.65;;;1.63;;
21432;SDS011;18592;49.708;10.900;2023-03-30T13:59:20;2.78;;;1.30;;
21432;SDS011;18592;49.708;10.900;2023-03-30T14:01:26;2.58;;;1.45;;
21432;SDS011;18592;49.708;10.900;2023-03-30T14:05:39;4.47;;;1.77;;
21432;SDS011;18592;49.708;10.900;2023-03-30T14:07:43;3.75;;;1.38;;
21432;SDS011;18592;49.708;10.900;2023-03-30T14:10:10;2.17;;;1.42;;
21432;SDS011;18592;49.708;10.900;2023-03-30T14:12:21;4.63;;;1.65;;
21432;SDS011;18592;49.708;10.900;2023-03-30T14:14:25;4.20;;;1.40;;
21432;SDS011;18592;49.708;10.900;2023-03-30T14:16:35;2.95;;;1.48;;
21432;SDS011;18592;49.708;10.900;2023-03-30T14:18:39;3.00;;;1.45;;
21432;SDS011;18592;49.708;10.900;2023-03-30T14:20:54;3.42;;;1.52;;
21432;SDS011;18592;49.708;10.900;2023-03-30T14:22:59;2.85;;;1.65;;
21432;SDS011;18592;49.708;10.900;2023-03-30T14:25:02;3.53;;;1.70;;
21432;SDS011;18592;49.708;10.900;2023-03-30T14:27:13;3.65;;;1.98;;
21432;SDS011;18592;49.708;10.900;2023-03-30T14:29:17;3.50;;;1.60;;
21432;SDS011;18592;49.708;10.900;2023-03-30T14:31:38;4.65;;;1.38;;
21432;SDS011;18592;49.708;10.900;2023-03-30T14:33:41;4.28;;;1.63;;
21432;SDS011;18592;49.708;10.900;2023-03-30T14:35:43;3.70;;;1.70;;
21432;SDS011;18592;49.708;10.900;2023-03-30T14:37:51;3.10;;;1.33;;
21432;SDS011;18592;49.708;10.900;2023-03-30T14:39:54;3.60;;;1.70;;
21432;SDS011;18592;49.708;10.900;2023-03-30T14:41:58;3.67;;;1.45;;
21432;SDS011;18592;49.708;10.900;2023-03-30T14:44:09;3.08;;;1.40;;
21432;SDS011;18592;49.708;10.900;2023-03-30T14:46:13;1.95;;;1.48;;
21432;SDS011;18592;49.708;10.900;2023-03-30T14:48:22;1.73;;;1.17;;
21432;SDS011;18592;49.708;10.900;2023-03-30T14:50:28;2.58;;;1.48;;
21432;SDS011;18592;49.708;10.900;2023-03-30T14:52:40;2.22;;;1.38;;